createdAt,value
2018-03-03T00:02:03.114Z,82.67
2018-03-03T00:04:28.934Z,82.58
2018-03-03T00:06:54.969Z,81.72
2018-03-03T00:09:20.778Z,81.77
2018-03-03T00:11:46.572Z,83.36
2018-03-03T00:14:12.376Z,80.05
2018-03-03T00:16:38.155Z,82.62
2018-03-03T00:19:04.051Z,80.02
2018-03-03T00:21:29.848Z,81.85
2018-03-03T00:23:55.651Z,80.75
2018-03-03T00:26:21.436Z,82.81
2018-03-03T00:28:47.238Z,83.61
2018-03-03T00:31:13.018Z,83.68
2018-03-03T00:33:38.801Z,81.46
2018-03-03T00:36:04.611Z,83.34
2018-03-03T00:38:30.699Z,80.79
2018-03-03T00:40:56.575Z,80.30
2018-03-03T00:43:22.864Z,83.96
2018-03-03T00:45:48.662Z,82.17
2018-03-03T00:48:14.482Z,85.28
2018-03-03T00:50:40.299Z,82.81
2018-03-03T00:53:06.144Z,82.09
2018-03-03T00:55:31.941Z,82.39
2018-03-03T00:57:57.746Z,81.88
2018-03-03T01:00:23.547Z,82.65
2018-03-03T01:02:49.332Z,83.02
2018-03-03T01:05:15.132Z,81.81
2018-03-03T01:07:40.911Z,82.13
2018-03-03T01:10:06.700Z,82.28
2018-03-03T01:12:32.506Z,81.47
2018-03-03T01:14:58.313Z,81.64
2018-03-03T01:17:24.117Z,81.63
2018-03-03T01:19:49.915Z,82.78
2018-03-03T01:22:15.705Z,81.55
2018-03-03T01:24:41.487Z,83.49
2018-03-03T01:27:07.312Z,80.46
2018-03-03T01:29:33.087Z,81.82
2018-03-03T01:31:58.879Z,82.06
2018-03-03T01:34:24.710Z,81.56
2018-03-03T01:36:50.500Z,80.29
2018-03-03T01:39:16.563Z,81.70
2018-03-03T01:41:42.844Z,79.86
2018-03-03T01:44:09.069Z,82.73
2018-03-03T01:46:34.892Z,84.67
2018-03-03T01:49:00.683Z,82.66
2018-03-03T01:51:39.219Z,83.59
2018-03-03T01:54:04.992Z,79.85
2018-03-03T01:56:30.788Z,81.86
2018-03-03T01:58:56.737Z,80.40
2018-03-03T02:01:22.603Z,81.49
2018-03-03T02:03:48.392Z,84.27
2018-03-03T02:06:14.202Z,81.99
2018-03-03T02:08:40.004Z,82.30
2018-03-03T02:11:05.803Z,82.64
2018-03-03T02:13:31.598Z,81.73
2018-03-03T02:15:57.385Z,85.26
2018-03-03T02:18:23.194Z,82.86
2018-03-03T02:20:48.979Z,82.33
2018-03-03T02:23:21.698Z,81.62
2018-03-03T02:25:47.491Z,82.14
2018-03-03T02:28:13.266Z,84.71
2018-03-03T02:30:39.067Z,80.60
2018-03-03T02:33:04.872Z,80.48
2018-03-03T02:35:30.674Z,84.28
2018-03-03T02:37:56.462Z,82.69
2018-03-03T02:40:22.381Z,79.81
2018-03-03T02:42:48.172Z,83.26
2018-03-03T02:45:13.975Z,80.77
2018-03-03T02:47:39.755Z,81.35
2018-03-03T02:50:05.659Z,82.53
2018-03-03T02:52:31.454Z,80.25
2018-03-03T02:54:57.524Z,82.75
2018-03-03T02:57:23.306Z,81.63
2018-03-03T02:59:49.159Z,79.76
2018-03-03T03:02:14.963Z,80.99
2018-03-03T03:04:40.743Z,81.31
2018-03-03T03:07:06.522Z,82.12
2018-03-03T03:09:32.343Z,83.18
2018-03-03T03:11:58.123Z,83.36
2018-03-03T03:14:23.906Z,81.13
2018-03-03T03:16:49.778Z,83.77
2018-03-03T03:19:15.566Z,80.95
2018-03-03T03:21:41.351Z,80.96
2018-03-03T03:24:07.172Z,79.26
2018-03-03T03:26:32.963Z,80.35
2018-03-03T03:28:58.751Z,81.02
2018-03-03T03:31:24.564Z,80.44
2018-03-03T03:33:50.406Z,83.01
2018-03-03T03:36:16.194Z,82.88
2018-03-03T03:38:42.009Z,81.80
2018-03-03T03:41:07.798Z,79.26
2018-03-03T03:43:33.592Z,83.15
2018-03-03T03:45:59.391Z,82.96
2018-03-03T03:48:25.181Z,80.35
2018-03-03T03:50:50.971Z,81.56
2018-03-03T03:53:16.770Z,83.15
2018-03-03T03:55:42.568Z,83.84
2018-03-03T03:58:08.350Z,80.81
2018-03-03T04:00:34.171Z,78.45
2018-03-03T04:02:59.986Z,80.94
2018-03-03T04:05:25.769Z,82.45
2018-03-03T04:07:51.569Z,81.88
2018-03-03T04:10:17.350Z,80.45
2018-03-03T04:12:43.166Z,79.63
2018-03-03T04:15:08.999Z,80.85
2018-03-03T04:17:34.799Z,79.33
2018-03-03T04:20:00.614Z,81.00
2018-03-03T04:22:26.398Z,78.47
2018-03-03T04:24:52.214Z,80.45
2018-03-03T04:27:18.042Z,80.77
2018-03-03T04:29:43.835Z,78.28
2018-03-03T04:32:09.638Z,81.66
2018-03-03T04:34:35.763Z,79.36
2018-03-03T04:37:01.570Z,84.26
2018-03-03T04:39:27.400Z,78.60
2018-03-03T04:41:53.351Z,78.63
2018-03-03T04:44:19.155Z,81.44
2018-03-03T04:46:44.957Z,78.49
2018-03-03T04:49:10.983Z,78.92
2018-03-03T04:51:36.739Z,80.19
2018-03-03T04:54:02.566Z,82.52
2018-03-03T04:56:29.195Z,81.93
2018-03-03T04:58:56.951Z,80.15
2018-03-03T05:01:22.814Z,80.98
2018-03-03T05:03:54.615Z,81.53
2018-03-03T05:06:27.300Z,78.78
2018-03-03T05:08:53.103Z,78.48
2018-03-03T05:11:18.930Z,81.84
2018-03-03T05:13:44.724Z,78.82
2018-03-03T05:16:16.706Z,81.67
2018-03-03T05:18:48.437Z,78.37
2018-03-03T05:24:26.833Z,80.65
2018-03-03T05:26:58.766Z,78.81
2018-03-03T05:29:29.383Z,80.15
2018-03-03T05:32:01.319Z,81.43
2018-03-03T05:37:32.994Z,79.98
2018-03-03T05:40:04.772Z,82.03
2018-03-03T05:42:36.662Z,81.20
2018-03-03T05:45:08.574Z,81.01
2018-03-03T05:47:40.420Z,81.58
2018-03-03T05:53:08.503Z,76.42
2018-03-03T05:58:41.219Z,78.04
2018-03-03T06:01:17.899Z,79.21
2018-03-03T06:03:51.499Z,77.89
2018-03-03T06:06:17.315Z,79.10
2018-03-03T06:08:49.314Z,80.08
2018-03-03T06:11:15.127Z,79.84
2018-03-03T06:13:40.942Z,78.84
2018-03-03T06:16:07.053Z,79.50
2018-03-03T06:18:32.865Z,79.59
2018-03-03T06:20:58.760Z,80.65
2018-03-03T06:23:25.248Z,80.06
2018-03-03T06:25:51.052Z,79.80
2018-03-03T06:28:16.870Z,80.23
2018-03-03T06:30:42.678Z,79.84
2018-03-03T06:33:08.479Z,79.60
2018-03-03T06:35:34.282Z,80.57
2018-03-03T06:38:00.335Z,80.38
2018-03-03T06:40:26.147Z,79.94
2018-03-03T06:42:51.941Z,78.19
2018-03-03T06:45:17.758Z,78.97
2018-03-03T06:47:43.551Z,78.30
2018-03-03T06:50:09.340Z,78.95
2018-03-03T06:52:35.134Z,78.83
2018-03-03T06:55:01.591Z,77.88
2018-03-03T06:57:27.474Z,78.48
2018-03-03T06:59:53.282Z,79.17
2018-03-03T07:02:19.081Z,78.60
2018-03-03T07:04:44.899Z,77.77
2018-03-03T07:07:10.683Z,77.41
2018-03-03T07:09:36.466Z,76.90
2018-03-03T07:12:02.282Z,79.01
2018-03-03T07:14:32.044Z,79.01
2018-03-03T07:16:57.874Z,78.07
2018-03-03T07:19:23.980Z,77.47
2018-03-03T07:21:49.774Z,77.87
2018-03-03T07:24:15.566Z,76.89
2018-03-03T07:26:41.375Z,77.88
2018-03-03T07:29:07.172Z,76.51
2018-03-03T07:31:32.970Z,75.50
2018-03-03T07:33:58.758Z,75.84
2018-03-03T07:36:24.552Z,75.15
2018-03-03T07:38:50.362Z,75.82
2018-03-03T07:41:16.169Z,76.83
2018-03-03T07:43:41.975Z,74.89
2018-03-03T07:46:07.796Z,74.99
2018-03-03T07:48:34.673Z,74.25
2018-03-03T07:51:00.612Z,73.32
2018-03-03T07:53:26.750Z,72.79
2018-03-03T07:55:53.358Z,72.67
2018-03-03T08:01:19.330Z,72.94
2018-03-03T08:03:45.157Z,70.62
2018-03-03T08:06:11.377Z,71.15
2018-03-03T08:08:37.257Z,69.57
2018-03-03T08:11:03.070Z,69.70
2018-03-03T08:13:28.862Z,68.62
2018-03-03T08:15:54.961Z,69.43
2018-03-03T08:18:21.358Z,69.28
2018-03-03T08:20:47.146Z,67.70
2018-03-03T08:23:12.966Z,68.04
2018-03-03T08:25:45.811Z,68.05
2018-03-03T08:28:11.615Z,67.30
2018-03-03T08:30:37.471Z,67.79
2018-03-03T08:33:03.294Z,66.91
2018-03-03T08:35:30.259Z,68.27
2018-03-03T08:37:56.356Z,66.11
2018-03-03T08:40:22.180Z,65.87
2018-03-03T08:42:48.010Z,67.45
2018-03-03T08:45:13.821Z,65.88
2018-03-03T08:47:39.791Z,66.93
2018-03-03T08:50:05.655Z,67.14
2018-03-03T08:52:31.601Z,64.45
2018-03-03T08:54:57.355Z,64.42
2018-03-03T08:57:23.223Z,64.37
2018-03-03T08:59:49.046Z,64.57
2018-03-03T09:02:14.848Z,64.96
2018-03-03T09:04:40.671Z,64.24
2018-03-03T09:07:06.473Z,65.62
2018-03-03T09:09:33.228Z,63.03
2018-03-03T09:11:59.111Z,63.17
2018-03-03T09:14:24.932Z,63.44
2018-03-03T09:16:50.754Z,62.69
2018-03-03T09:19:16.571Z,62.37
2018-03-03T09:21:42.415Z,62.91
2018-03-03T09:24:08.234Z,61.93
2018-03-03T09:26:34.038Z,61.01
2018-03-03T09:28:59.829Z,61.18
2018-03-03T09:31:25.806Z,60.87
2018-03-03T09:33:52.364Z,60.49
2018-03-03T09:36:18.206Z,61.13
2018-03-03T09:38:44.023Z,60.01
2018-03-03T09:41:09.823Z,59.34
2018-03-03T09:43:36.203Z,58.99
2018-03-03T09:46:02.322Z,60.02
2018-03-03T09:48:28.901Z,58.14
2018-03-03T09:50:54.873Z,57.62
2018-03-03T09:53:21.410Z,58.13
2018-03-03T09:55:47.284Z,56.36
2018-03-03T09:58:13.110Z,57.30
2018-03-03T10:00:39.168Z,57.59
2018-03-03T10:03:06.447Z,57.00
2018-03-03T10:05:32.252Z,55.58
2018-03-03T10:07:58.581Z,56.69
2018-03-03T10:10:24.634Z,56.51
2018-03-03T10:12:50.422Z,54.89
2018-03-03T10:15:16.329Z,55.96
2018-03-03T10:17:42.118Z,56.19
2018-03-03T10:20:07.929Z,55.26
2018-03-03T10:22:33.756Z,53.87
2018-03-03T10:24:59.558Z,58.86
2018-03-03T10:27:25.395Z,53.08
2018-03-03T10:29:51.235Z,56.22
2018-03-03T10:32:17.059Z,53.04
2018-03-03T10:34:42.871Z,54.05
2018-03-03T10:37:08.683Z,53.80
2018-03-03T10:39:34.524Z,54.06
2018-03-03T10:42:00.802Z,54.64
2018-03-03T10:44:26.626Z,55.74
2018-03-03T10:46:52.433Z,53.88
2018-03-03T10:49:18.240Z,52.37
2018-03-03T10:51:44.926Z,52.77
2018-03-03T10:54:10.723Z,51.84
2018-03-03T10:56:36.555Z,51.97
2018-03-03T10:59:02.406Z,55.13
2018-03-03T11:01:28.252Z,53.10
2018-03-03T11:03:54.059Z,53.11
2018-03-03T11:06:26.930Z,52.14
2018-03-03T11:08:52.750Z,52.23
2018-03-03T11:11:18.554Z,52.79
2018-03-03T11:13:45.147Z,52.84
2018-03-03T11:16:10.940Z,53.02
2018-03-03T11:18:36.784Z,53.16
2018-03-03T11:21:02.579Z,52.74
2018-03-03T11:23:28.788Z,52.12
2018-03-03T11:25:54.616Z,52.39
2018-03-03T11:28:20.601Z,51.25
2018-03-03T11:30:46.399Z,51.14
2018-03-03T11:33:12.292Z,51.59
2018-03-03T11:35:38.083Z,52.09
2018-03-03T11:38:03.936Z,52.15
2018-03-03T11:40:33.136Z,52.79
2018-03-03T11:42:55.530Z,52.34
2018-03-03T11:45:21.378Z,51.31
2018-03-03T11:47:47.186Z,51.58
2018-03-03T11:50:13.053Z,51.77
2018-03-03T11:52:39.196Z,51.88
2018-03-03T11:55:05.004Z,51.03
2018-03-03T11:57:31.786Z,51.67
2018-03-03T11:59:57.634Z,51.08
2018-03-03T12:02:23.526Z,51.55
2018-03-03T12:04:56.287Z,51.21
2018-03-03T12:07:22.111Z,52.07
2018-03-03T12:09:47.924Z,50.19
2018-03-03T12:12:13.754Z,50.87
2018-03-03T12:14:39.567Z,50.43
2018-03-03T12:17:05.358Z,50.73
2018-03-03T12:19:31.146Z,49.98
2018-03-03T12:21:56.959Z,51.44
2018-03-03T12:24:22.795Z,50.10
2018-03-03T12:26:48.603Z,50.91
2018-03-03T12:29:14.712Z,49.51
2018-03-03T12:31:40.488Z,48.96
2018-03-03T12:34:06.262Z,47.19
2018-03-03T12:36:32.054Z,47.43
2018-03-03T12:38:57.846Z,48.59
2018-03-03T12:41:23.630Z,48.04
2018-03-03T12:43:49.455Z,48.09
2018-03-03T12:46:15.245Z,46.78
2018-03-03T12:48:41.038Z,53.79
2018-03-03T12:51:06.902Z,58.67
2018-03-03T12:53:32.683Z,43.91
2018-03-03T12:55:58.472Z,45.67
2018-03-03T12:58:24.320Z,45.94
2018-03-03T13:00:50.079Z,45.96
2018-03-03T13:03:15.875Z,46.48
2018-03-03T13:05:41.713Z,46.29
2018-03-03T13:08:07.499Z,45.59
2018-03-03T13:10:33.311Z,45.39
2018-03-03T13:12:59.098Z,45.24
2018-03-03T13:15:24.891Z,44.70
2018-03-03T13:17:50.799Z,43.77
2018-03-03T13:20:16.574Z,44.32
2018-03-03T13:22:42.351Z,44.37
2018-03-03T13:25:08.155Z,44.04
2018-03-03T13:27:33.995Z,43.15
2018-03-03T13:29:59.728Z,43.17
2018-03-03T13:32:25.534Z,43.24
2018-03-03T13:34:51.314Z,43.71
2018-03-03T13:37:17.103Z,45.16
2018-03-03T13:39:43.281Z,43.03
2018-03-03T13:42:09.074Z,42.68
2018-03-03T13:44:34.855Z,43.21
2018-03-03T13:47:00.674Z,43.11
2018-03-03T13:49:26.480Z,42.10
2018-03-03T13:51:52.259Z,41.29
2018-03-03T13:54:18.083Z,42.23
2018-03-03T13:56:43.952Z,42.29
2018-03-03T13:59:09.695Z,41.82
2018-03-03T14:01:35.514Z,40.82
2018-03-03T14:04:01.299Z,41.39
2018-03-03T14:06:27.104Z,40.42
2018-03-03T14:08:52.912Z,40.33
2018-03-03T14:11:18.726Z,41.59
2018-03-03T14:13:44.500Z,40.64
2018-03-03T14:16:10.300Z,40.06
2018-03-03T14:18:36.154Z,42.05
2018-03-03T14:21:01.954Z,42.39
2018-03-03T14:23:27.721Z,43.49
2018-03-03T14:25:53.765Z,44.09
2018-03-03T14:28:19.514Z,44.52
2018-03-03T14:30:45.299Z,44.87
2018-03-03T14:33:11.079Z,90.98
2018-03-03T14:35:36.888Z,46.16
2018-03-03T14:38:02.725Z,46.78
2018-03-03T14:40:28.526Z,46.93
2018-03-03T14:42:54.304Z,48.24
2018-03-03T14:45:20.486Z,48.65
2018-03-03T14:47:46.283Z,49.09
2018-03-03T14:50:12.059Z,48.96
2018-03-03T14:52:37.860Z,52.99
2018-03-03T14:55:03.658Z,49.55
2018-03-03T14:57:29.434Z,52.24
2018-03-03T14:59:55.331Z,50.99
2018-03-03T15:02:21.133Z,48.82
2018-03-03T15:04:46.911Z,49.24
2018-03-03T15:07:12.735Z,51.64
2018-03-03T15:09:38.522Z,51.47
2018-03-03T15:12:04.320Z,50.81
2018-03-03T15:14:30.124Z,54.09
2018-03-03T15:16:55.916Z,50.52
2018-03-03T15:19:21.701Z,51.84
2018-03-03T15:21:47.490Z,50.65
2018-03-03T15:24:13.290Z,51.66
2018-03-03T15:26:39.120Z,50.02
2018-03-03T15:29:04.928Z,85.93
2018-03-03T15:31:30.923Z,60.48
2018-03-03T15:33:56.707Z,49.91
2018-03-03T15:36:22.495Z,49.59
2018-03-03T15:38:48.482Z,50.45
2018-03-03T15:41:14.268Z,50.88
2018-03-03T15:43:40.059Z,51.36
2018-03-03T15:46:05.858Z,51.71
2018-03-03T15:48:31.674Z,51.42
2018-03-03T15:50:57.466Z,52.33
2018-03-03T15:53:23.257Z,52.53
2018-03-03T15:55:49.078Z,53.05
2018-03-03T15:58:14.866Z,52.87
2018-03-03T16:00:40.651Z,52.67
2018-03-03T16:03:06.444Z,53.49
2018-03-03T16:05:32.250Z,53.25
2018-03-03T16:07:58.048Z,53.77
2018-03-03T16:10:23.847Z,53.10
2018-03-03T16:12:49.640Z,53.32
2018-03-03T16:15:22.360Z,53.73
2018-03-03T16:17:48.160Z,53.85
2018-03-03T16:20:13.959Z,53.87
2018-03-03T16:22:39.842Z,53.97
2018-03-03T16:25:05.652Z,53.98
2018-03-03T16:27:31.446Z,53.90
2018-03-03T16:29:57.261Z,54.62
2018-03-03T16:32:23.052Z,54.15
2018-03-03T16:34:48.835Z,54.57
2018-03-03T16:37:14.984Z,54.77
2018-03-03T16:39:40.775Z,55.04
2018-03-03T16:42:06.550Z,55.10
2018-03-03T16:44:32.360Z,55.37
2018-03-03T16:46:58.142Z,55.17
2018-03-03T16:49:23.930Z,55.61
2018-03-03T16:51:49.996Z,55.56
2018-03-03T16:54:15.787Z,80.57
2018-03-03T16:56:41.578Z,54.74
2018-03-03T16:59:07.458Z,55.30
2018-03-03T17:01:33.246Z,55.55
2018-03-03T17:03:59.019Z,56.11
2018-03-03T17:06:24.816Z,56.03
2018-03-03T17:08:50.627Z,55.96
2018-03-03T17:11:16.438Z,79.17
2018-03-03T17:13:42.269Z,79.62
2018-03-03T17:16:08.067Z,66.75
2018-03-03T17:18:33.866Z,53.74
2018-03-03T17:20:59.639Z,54.80
2018-03-03T17:23:25.425Z,55.80
2018-03-03T17:25:51.230Z,54.78
2018-03-03T17:28:17.033Z,57.14
2018-03-03T17:30:42.820Z,58.87
2018-03-03T17:33:08.623Z,57.57
2018-03-03T17:35:34.423Z,56.37
2018-03-03T17:38:00.245Z,56.25
2018-03-03T17:40:26.037Z,56.55
2018-03-03T17:42:51.804Z,56.73
2018-03-03T17:45:17.610Z,57.05
2018-03-03T17:47:43.414Z,56.71
2018-03-03T17:50:09.212Z,57.01
2018-03-03T17:52:35.009Z,56.53
2018-03-03T17:55:00.802Z,57.53
2018-03-03T17:57:26.712Z,57.92
2018-03-03T17:59:52.512Z,57.91
2018-03-03T18:02:18.317Z,58.54
2018-03-03T18:04:44.139Z,59.57
2018-03-03T18:07:09.924Z,59.97
2018-03-03T18:09:35.698Z,59.79
2018-03-03T18:12:01.510Z,59.85
2018-03-03T18:14:27.328Z,59.73
2018-03-03T18:16:53.150Z,60.01
2018-03-03T18:19:29.271Z,59.92
2018-03-03T18:21:55.067Z,60.81
2018-03-03T18:24:38.992Z,60.72
2018-03-03T18:27:04.795Z,61.05
2018-03-03T18:29:30.592Z,61.33
2018-03-03T18:31:56.411Z,60.87
2018-03-03T18:34:22.195Z,60.79
2018-03-03T18:36:47.991Z,61.13
2018-03-03T18:39:14.055Z,60.91
2018-03-03T18:41:39.838Z,61.07
2018-03-03T18:44:05.622Z,61.48
2018-03-03T18:46:31.430Z,61.37
2018-03-03T18:48:57.213Z,61.56
2018-03-03T18:51:23.001Z,62.22
2018-03-03T18:53:48.810Z,61.75
2018-03-03T18:56:14.722Z,62.12
2018-03-03T18:58:40.507Z,62.38
2018-03-03T19:01:06.303Z,62.32
2018-03-03T19:03:32.330Z,62.36
2018-03-03T19:05:58.119Z,62.41
2018-03-03T19:08:23.923Z,62.85
2018-03-03T19:10:49.741Z,64.16
2018-03-03T19:13:15.530Z,63.99
2018-03-03T19:15:41.320Z,63.91
2018-03-03T19:18:07.149Z,63.99
2018-03-03T19:20:32.948Z,72.17
2018-03-03T19:22:58.743Z,72.95
2018-03-03T19:25:24.539Z,65.26
2018-03-03T19:27:50.323Z,64.87
2018-03-03T19:30:16.100Z,65.34
2018-03-03T19:32:42.163Z,65.55
2018-03-03T19:35:07.967Z,65.96
2018-03-03T19:37:33.784Z,66.14
2018-03-03T19:39:59.680Z,67.01
2018-03-03T19:42:25.501Z,66.34
2018-03-03T19:44:51.312Z,66.33
2018-03-03T19:47:17.113Z,66.14
2018-03-03T19:49:42.905Z,66.33
2018-03-03T19:52:08.696Z,66.46
2018-03-03T19:54:34.787Z,66.82
2018-03-03T19:57:00.575Z,66.87
2018-03-03T19:59:26.371Z,67.47
2018-03-03T20:01:52.207Z,67.29
2018-03-03T20:04:18.017Z,67.46
2018-03-03T20:06:43.803Z,67.68
2018-03-03T20:09:09.611Z,67.68
2018-03-03T20:11:35.391Z,68.14
2018-03-03T20:14:01.221Z,68.57
2018-03-03T20:16:27.024Z,68.30
2018-03-03T20:18:52.824Z,68.94
2018-03-03T20:21:18.642Z,69.01
2018-03-03T20:23:44.435Z,68.95
2018-03-03T20:26:10.224Z,68.98
2018-03-03T20:28:36.131Z,69.47
2018-03-03T20:31:01.932Z,69.47
2018-03-03T20:33:27.722Z,70.08
2018-03-03T20:35:53.535Z,69.71
2018-03-03T20:38:19.319Z,69.87
2018-03-03T20:40:45.092Z,70.04
2018-03-03T20:43:10.896Z,69.92
2018-03-03T20:45:36.687Z,70.34
2018-03-03T20:48:02.488Z,70.63
2018-03-03T20:50:28.328Z,71.30
2018-03-03T20:52:54.120Z,71.14
2018-03-03T20:55:19.943Z,70.96
2018-03-03T20:57:45.769Z,70.57
2018-03-03T21:00:11.557Z,70.55
2018-03-03T21:02:37.367Z,71.14
2018-03-03T21:05:03.206Z,70.87
2018-03-03T21:07:28.991Z,70.82
2018-03-03T21:09:54.870Z,71.02
2018-03-03T21:12:21.654Z,71.13
2018-03-03T21:14:47.577Z,71.62
2018-03-03T21:17:13.451Z,71.24
2018-03-03T21:19:39.976Z,71.74
2018-03-03T21:22:06.709Z,93.87
2018-03-03T21:24:32.513Z,70.66
2018-03-03T21:27:00.153Z,71.64
2018-03-03T21:29:26.853Z,72.25
2018-03-03T21:31:53.659Z,71.89
2018-03-03T21:34:19.819Z,71.65
2018-03-03T21:36:45.628Z,72.20
2018-03-03T21:39:12.122Z,72.00
2018-03-03T21:41:37.936Z,71.97
2018-03-03T21:44:03.754Z,72.04
2018-03-03T21:46:29.856Z,72.08
2018-03-03T21:48:55.674Z,72.75
2018-03-03T21:51:21.501Z,72.99
2018-03-03T21:53:48.555Z,73.24
2018-03-03T21:56:15.076Z,73.55
2018-03-03T21:58:40.880Z,73.28
2018-03-03T22:01:07.509Z,73.51
2018-03-03T22:03:33.360Z,73.24
2018-03-03T22:05:59.264Z,72.77
2018-03-03T22:08:25.119Z,72.92
2018-03-03T22:10:50.976Z,73.37
2018-03-03T22:13:16.818Z,73.54
2018-03-03T22:15:42.622Z,73.43
2018-03-03T22:18:08.452Z,73.93
2018-03-03T22:20:34.269Z,72.80
2018-03-03T22:23:00.178Z,72.70
2018-03-03T22:25:25.982Z,72.76
2018-03-03T22:27:52.759Z,72.71
2018-03-03T22:30:19.443Z,73.36
2018-03-03T22:32:45.251Z,73.01
2018-03-03T22:35:11.095Z,73.05
2018-03-03T22:37:36.902Z,73.09
2018-03-03T22:40:02.748Z,73.17
2018-03-03T22:42:28.886Z,73.35
2018-03-03T22:44:54.993Z,92.61
2018-03-03T22:47:20.835Z,76.22
2018-03-03T22:49:46.650Z,79.18
2018-03-03T22:52:12.483Z,74.08
2018-03-03T22:54:38.395Z,76.42
2018-03-03T22:57:05.105Z,78.77
2018-03-03T22:59:30.916Z,75.43
2018-03-03T23:01:56.748Z,80.08
2018-03-03T23:04:22.564Z,73.68
2018-03-03T23:06:48.380Z,75.77
2018-03-03T23:09:14.203Z,75.04
2018-03-03T23:11:40.016Z,78.36
2018-03-03T23:14:05.808Z,74.39
2018-03-03T23:16:32.329Z,74.39
2018-03-03T23:18:58.177Z,78.04
2018-03-03T23:21:24.266Z,80.34
2018-03-03T23:23:50.207Z,75.40
2018-03-03T23:26:16.223Z,73.72
2018-03-03T23:28:42.048Z,77.67
2018-03-03T23:31:07.853Z,79.85
2018-03-03T23:33:33.728Z,75.31
2018-03-03T23:35:59.539Z,76.95
2018-03-03T23:38:26.274Z,77.25
2018-03-03T23:40:52.379Z,77.18
2018-03-03T23:43:18.254Z,74.67
2018-03-03T23:45:44.423Z,75.14
2018-03-03T23:48:10.363Z,75.80
2018-03-03T23:50:37.046Z,75.49
2018-03-03T23:53:02.960Z,77.97
2018-03-03T23:55:28.822Z,75.11
2018-03-03T23:57:55.465Z,77.70
